Time;durP1;ratioP1;P1;durP2;ratioP2;P2;SDS_P1;SDS_P2;PMS_P1;PMS_P2;Temp;Humidity;BMP_temperature;BMP_pressure;BME280_temperature;BME280_humidity;BME280_pressure;Samples;Min_cycle;Max_cycle;Signal;HPM_P1;HPM_P2
2022/06/09 00:01:46;;;;;;;;;;;;;;;18.27;62.81;100146.09;5068564;28;981;-56
2022/06/09 00:04:15;;;;;;;;;;;;;;;17.85;61.80;100143.16;5057681;28;968;-56
2022/06/09 00:06:45;;;;;;;;;;;;;;;16.62;60.32;100130.88;5072365;28;1059;-56
2022/06/09 00:09:10;;;;;;;;;;;;;;;15.87;62.42;100136.41;5043900;28;1155;-56
2022/06/09 00:11:36;;;;;;;;;;;;;;;16.94;57.05;100138.53;5050661;28;981;-56
2022/06/09 00:14:03;;;;;;;;;;;;;;;17.18;56.97;100124.81;5047183;28;1917;-56
2022/06/09 00:16:28;;;;;;;;;;;;;;;17.45;57.84;100132.41;5062257;28;1129;-56
2022/06/09 00:18:54;;;;;;;;;;;;;;;17.03;59.61;100131.28;5073197;28;989;-56
2022/06/09 00:21:21;;;;;;;;;;;;;;;16.31;61.74;100131.16;5072038;28;1150;-56
2022/06/09 00:23:46;;;;;;;;;;;;;;;17.37;63.57;100135.00;5066621;28;1031;-56
2022/06/09 00:26:12;;;;;;;;;;;;;;;18.00;62.49;100120.13;5068710;28;964;-56
2022/06/09 00:28:37;;;;;;;;;;;;;;;17.83;60.87;100119.81;5067231;28;1142;-56
2022/06/09 00:31:03;;;;;;;;;;;;;;;17.32;58.48;100122.16;5068273;28;978;-55
2022/06/09 00:33:28;;;;;;;;;;;;;;;16.19;58.65;100126.03;5068280;28;1909;-56
2022/06/09 00:35:54;;;;;;;;;;;;;;;16.64;54.75;100123.97;5072783;28;983;-56
2022/06/09 00:38:19;;;;;;;;;;;;;;;17.25;53.88;100121.69;5071685;28;1189;-56
2022/06/09 00:40:44;;;;;;;;;;;;;;;17.23;56.08;100112.91;5074421;28;1004;-56
2022/06/09 00:43:10;;;;;;;;;;;;;;;17.62;57.62;100120.91;5067409;28;1221;-56
2022/06/09 00:45:36;;;;;;;;;;;;;;;16.69;61.84;100112.97;5067421;28;989;-56
2022/06/09 00:48:02;;;;;;;;;;;;;;;16.36;63.34;100117.41;5068434;28;1079;-56
2022/06/09 00:50:27;;;;;;;;;;;;;;;17.27;65.03;100131.25;5067220;28;1193;-56
2022/06/09 00:52:55;;;;;;;;;;;;;;;17.98;63.07;100135.28;5056937;28;1076;-57
2022/06/09 00:55:21;;;;;;;;;;;;;;;18.08;63.34;100140.63;5044050;28;1969;-56
2022/06/09 00:57:50;;;;;;;;;;;;;;;18.09;63.10;100125.75;5066089;28;1154;-56
2022/06/09 01:00:17;;;;;;;;;;;;;;;17.18;63.16;100133.03;5071229;28;1219;-56
2022/06/09 01:02:43;;;;;;;;;;;;;;;16.64;62.44;100132.22;5065228;28;1076;-56
2022/06/09 01:05:08;;;;;;;;;;;;;;;16.73;64.97;100138.72;5059357;28;1158;-56
2022/06/09 01:07:35;;;;;;;;;;;;;;;16.98;66.11;100128.59;5041270;28;1127;-56
2022/06/09 01:10:01;;;;;;;;;;;;;;;16.86;65.85;100133.66;5065115;28;885;-56
2022/06/09 01:12:28;;;;;;;;;;;;;;;16.71;65.71;100138.19;5069019;28;976;-56
2022/06/09 01:14:55;;;;;;;;;;;;;;;16.89;67.65;100133.91;5072684;28;1973;-56
2022/06/09 01:17:26;;;;;;;;;;;;;;;17.16;67.97;100123.44;5041279;28;1118;-56
2022/06/09 01:19:54;;;;;;;;;;;;;;;17.22;68.34;100136.00;5048158;28;1040;-56
2022/06/09 01:22:19;;;;;;;;;;;;;;;17.53;68.91;100128.19;5068887;28;862;-56
2022/06/09 01:24:45;;;;;;;;;;;;;;;17.43;69.48;100137.41;5069598;28;999;-57
2022/06/09 01:27:19;;;;;;;;;;;;;;;17.40;68.94;100123.41;5073374;28;1087;-56
2022/06/09 01:29:44;;;;;;;;;;;;;;;17.45;69.46;100134.34;5049545;28;1072;-57
2022/06/09 01:32:10;;;;;;;;;;;;;;;17.88;69.04;100120.56;5075284;28;1079;-56
2022/06/09 01:34:54;;;;;;;;;;;;;;;17.87;68.90;100134.59;5068542;28;1906;-56
2022/06/09 01:37:46;;;;;;;;;;;;;;;17.50;67.71;100125.22;5054147;28;1091;-56
2022/06/09 01:40:12;;;;;;;;;;;;;;;17.60;68.76;100136.09;5072517;28;1228;-56
2022/06/09 01:42:39;;;;;;;;;;;;;;;17.89;68.58;100129.59;5066808;28;1067;-56
2022/06/09 01:45:18;;;;;;;;;;;;;;;17.49;68.60;100132.66;5059627;28;1032;-56
2022/06/09 01:47:55;;;;;;;;;;;;;;;17.51;68.53;100133.16;5069712;28;906;-56
2022/06/09 01:50:24;;;;;;;;;;;;;;;17.96;68.54;100121.81;5064715;28;1138;-56
2022/06/09 01:52:50;;;;;;;;;;;;;;;18.14;68.79;100131.19;5074208;28;1055;-56
2022/06/09 01:55:16;;;;;;;;;;;;;;;18.13;68.56;100135.03;5072728;28;1918;-56
2022/06/09 01:57:42;;;;;;;;;;;;;;;18.00;68.49;100133.88;5075802;28;992;-56
2022/06/09 02:00:12;;;;;;;;;;;;;;;17.93;68.09;100145.25;5071658;28;1190;-56
2022/06/09 02:02:39;;;;;;;;;;;;;;;17.94;68.04;100124.88;5052610;28;1028;-56
2022/06/09 02:05:10;;;;;;;;;;;;;;;18.00;68.83;100125.63;5052493;28;989;-57
2022/06/09 02:07:37;;;;;;;;;;;;;;;18.28;68.78;100133.97;5048122;28;976;-57
2022/06/09 02:10:15;;;;;;;;;;;;;;;18.34;68.35;100130.03;5054737;28;992;-56
2022/06/09 02:12:41;;;;;;;;;;;;;;;18.30;68.68;100123.50;5047782;28;933;-56
2022/06/09 02:15:06;;;;;;;;;;;;;;;18.27;68.67;100129.59;5053693;28;1918;-56
2022/06/09 02:17:45;;;;;;;;;;;;;;;18.37;68.19;100129.44;5064503;28;1151;-56
2022/06/09 02:20:10;;;;;;;;;;;;;;;18.77;67.51;100138.06;5061066;28;1028;-56
2022/06/09 02:22:36;;;;;;;;;;;;;;;18.39;67.95;100138.19;5072494;28;1074;-56
2022/06/09 02:25:01;;;;;;;;;;;;;;;18.11;66.63;100129.84;5066228;28;1407;-56
2022/06/09 02:27:27;;;;;;;;;;;;;;;17.64;65.67;100126.09;5074290;28;1000;-56
2022/06/09 02:29:52;;;;;;;;;;;;;;;17.17;63.67;100125.09;5067644;28;1143;-56
2022/06/09 02:32:17;;;;;;;;;;;;;;;16.89;64.13;100116.63;5075696;28;996;-56
2022/06/09 02:34:43;;;;;;;;;;;;;;;16.90;62.47;100126.47;5075431;28;1984;-56
2022/06/09 02:37:08;;;;;;;;;;;;;;;16.99;58.74;100108.25;5059647;28;957;-56
2022/06/09 02:39:34;;;;;;;;;;;;;;;16.83;57.10;100125.97;5064512;28;1092;-56
2022/06/09 02:41:59;;;;;;;;;;;;;;;17.47;55.16;100117.56;5066352;28;1118;-56
2022/06/09 02:44:25;;;;;;;;;;;;;;;17.47;57.70;100134.06;5072242;28;1012;-56
2022/06/09 02:46:50;;;;;;;;;;;;;;;17.93;58.11;100136.19;5069211;28;1319;-56
2022/06/09 02:49:17;;;;;;;;;;;;;;;17.19;61.18;100129.16;5073380;28;988;-56
2022/06/09 02:51:42;;;;;;;;;;;;;;;16.69;62.08;100137.66;5070648;28;890;-56
2022/06/09 02:54:10;;;;;;;;;;;;;;;16.47;66.09;100137.34;5074202;28;1969;-56
2022/06/09 02:56:36;;;;;;;;;;;;;;;17.59;63.77;100120.69;5075033;28;1055;-56
2022/06/09 02:59:01;;;;;;;;;;;;;;;17.88;63.91;100112.31;5075694;28;1173;-56
2022/06/09 03:01:28;;;;;;;;;;;;;;;18.12;64.19;100116.91;5063192;28;1088;-56
2022/06/09 03:03:54;;;;;;;;;;;;;;;17.92;64.27;100129.03;5060367;28;1058;-56
2022/06/09 03:06:20;;;;;;;;;;;;;;;17.02;63.69;100107.66;5069779;28;1458;-56
2022/06/09 03:08:46;;;;;;;;;;;;;;;16.42;63.14;100110.75;5066000;28;980;-56
2022/06/09 03:11:11;;;;;;;;;;;;;;;16.63;64.80;100105.88;5070453;28;996;-56
2022/06/09 03:13:37;;;;;;;;;;;;;;;17.00;64.88;100114.56;5072678;28;1910;-56
2022/06/09 03:16:03;;;;;;;;;;;;;;;16.88;68.66;100124.03;5067838;28;1166;-55
2022/06/09 03:18:29;;;;;;;;;;;;;;;17.21;70.21;100113.22;5062863;28;1083;-57
2022/06/09 03:20:54;;;;;;;;;;;;;;;17.24;67.80;100109.88;5072522;28;1055;-57
2022/06/09 03:23:20;;;;;;;;;;;;;;;17.32;63.53;100113.91;5070591;28;1162;-56
2022/06/09 03:25:45;;;;;;;;;;;;;;;16.72;60.96;100120.59;5072735;28;1127;-57
2022/06/09 03:28:11;;;;;;;;;;;;;;;16.28;59.91;100113.34;5068477;28;1024;-56
2022/06/09 03:30:36;;;;;;;;;;;;;;;17.33;58.08;100107.28;5065008;28;889;-56
2022/06/09 03:33:02;;;;;;;;;;;;;;;18.09;58.86;100106.47;5066736;28;991;-57
2022/06/09 03:35:27;;;;;;;;;;;;;;;18.13;60.99;100100.09;5071833;28;1913;-56
2022/06/09 03:37:53;;;;;;;;;;;;;;;18.21;62.95;100097.78;5068869;28;1175;-56
2022/06/09 03:40:19;;;;;;;;;;;;;;;17.85;63.88;100095.56;5073106;28;1023;-56
2022/06/09 03:42:44;;;;;;;;;;;;;;;17.00;64.18;100103.56;5069164;28;980;-57
2022/06/09 03:45:10;;;;;;;;;;;;;;;16.63;64.31;100099.56;5075235;28;909;-58
2022/06/09 03:47:35;;;;;;;;;;;;;;;17.01;66.06;100095.06;5068909;28;1277;-56
2022/06/09 03:50:01;;;;;;;;;;;;;;;17.14;66.58;100107.28;5069769;28;1008;-56
2022/06/09 03:52:26;;;;;;;;;;;;;;;16.99;66.32;100115.69;5069271;28;1046;-56
2022/06/09 03:54:52;;;;;;;;;;;;;;;17.01;66.59;100099.72;5068167;28;1906;-57
2022/06/09 03:57:17;;;;;;;;;;;;;;;17.39;68.46;100099.78;5062217;28;981;-57
2022/06/09 03:59:43;;;;;;;;;;;;;;;17.57;69.16;100095.41;5065901;28;1070;-57
2022/06/09 04:02:08;;;;;;;;;;;;;;;17.57;69.66;100089.91;5071387;28;1000;-57
2022/06/09 04:04:34;;;;;;;;;;;;;;;17.67;69.60;100081.53;5073168;28;1039;-57
2022/06/09 04:06:59;;;;;;;;;;;;;;;18.12;70.43;100094.91;5064488;28;961;-57
2022/06/09 04:09:25;;;;;;;;;;;;;;;18.12;69.70;100090.22;5065473;28;1459;-57
2022/06/09 04:11:50;;;;;;;;;;;;;;;17.70;66.95;100091.94;5069266;28;1225;-58
2022/06/09 04:14:16;;;;;;;;;;;;;;;17.25;65.56;100088.69;5058984;28;1910;-57
2022/06/09 04:16:44;;;;;;;;;;;;;;;17.21;66.62;100093.19;5069221;28;1082;-57
2022/06/09 04:19:10;;;;;;;;;;;;;;;17.62;67.67;100098.09;5071399;28;1075;-57
2022/06/09 04:21:35;;;;;;;;;;;;;;;17.80;69.07;100110.22;5070369;28;1185;-58
2022/06/09 04:24:01;;;;;;;;;;;;;;;18.25;69.88;100113.38;5066108;28;976;-57
2022/06/09 04:26:27;;;;;;;;;;;;;;;18.35;70.62;100109.63;5074744;28;1155;-57
2022/06/09 04:28:52;;;;;;;;;;;;;;;18.39;70.16;100116.16;5077664;28;1109;-57
2022/06/09 04:31:18;;;;;;;;;;;;;;;18.10;69.27;100111.72;5067472;28;972;-57
2022/06/09 04:33:43;;;;;;;;;;;;;;;18.14;68.97;100109.16;5065316;28;1905;-57
2022/06/09 04:36:09;;;;;;;;;;;;;;;18.17;67.72;100116.00;5074054;28;972;-57
2022/06/09 04:38:35;;;;;;;;;;;;;;;17.82;66.33;100110.72;5066097;28;1146;-55
2022/06/09 04:41:02;;;;;;;;;;;;;;;17.22;64.90;100108.53;5075543;28;988;-56
2022/06/09 04:43:28;;;;;;;;;;;;;;;17.03;63.97;100117.56;5073390;28;1234;-56
2022/06/09 04:45:53;;;;;;;;;;;;;;;17.06;61.69;100118.91;5075093;28;1036;-56
2022/06/09 04:48:19;;;;;;;;;;;;;;;16.95;58.74;100114.63;5070750;28;1178;-55
2022/06/09 04:50:44;;;;;;;;;;;;;;;17.06;55.35;100114.22;5077487;28;1131;-55
2022/06/09 04:53:10;;;;;;;;;;;;;;;17.02;54.11;100109.59;5066254;28;1000;-55
2022/06/09 04:55:36;;;;;;;;;;;;;;;17.04;52.35;100119.19;5071373;28;1906;-59
2022/06/09 04:58:01;;;;;;;;;;;;;;;17.04;52.94;100118.34;5065288;28;1112;-60
2022/06/09 05:00:27;;;;;;;;;;;;;;;17.31;54.38;100123.25;5071364;28;934;-56
2022/06/09 05:02:53;;;;;;;;;;;;;;;17.52;56.95;100129.31;5077496;28;984;-59
2022/06/09 05:05:20;;;;;;;;;;;;;;;17.37;59.09;100135.81;5072944;28;1213;-59
2022/06/09 05:07:46;;;;;;;;;;;;;;;17.69;59.68;100137.03;5041177;28;1082;-58
2022/06/09 05:10:11;;;;;;;;;;;;;;;17.99;59.78;100139.66;5064346;28;1059;-59
2022/06/09 05:12:37;;;;;;;;;;;;;;;17.56;61.61;100137.78;5077782;28;1194;-60
2022/06/09 05:15:03;;;;;;;;;;;;;;;17.41;62.63;100139.59;5063155;28;1906;-59
2022/06/09 05:17:29;;;;;;;;;;;;;;;17.84;61.74;100135.19;5070103;28;1046;-58
2022/06/09 05:19:54;;;;;;;;;;;;;;;18.10;61.39;100135.63;5071419;28;1190;-58
2022/06/09 05:22:19;;;;;;;;;;;;;;;17.87;62.68;100140.91;5059495;28;1047;-60
2022/06/09 05:24:45;;;;;;;;;;;;;;;17.40;64.06;100142.66;5075063;28;1158;-58
2022/06/09 05:27:11;;;;;;;;;;;;;;;17.18;65.27;100143.19;5072305;28;1039;-58
2022/06/09 05:29:37;;;;;;;;;;;;;;;17.88;63.33;100141.72;5067788;28;991;-60
2022/06/09 05:32:03;;;;;;;;;;;;;;;17.99;62.50;100134.97;5067842;28;1015;-58
2022/06/09 05:34:30;;;;;;;;;;;;;;;17.62;63.85;100131.09;5067681;28;1901;-60
2022/06/09 05:36:56;;;;;;;;;;;;;;;17.34;65.08;100128.16;5067803;28;1118;-59
2022/06/09 05:44:51;;;;;;;;;;;;;;;17.89;64.05;100118.59;5073199;28;1042;-58
2022/06/09 05:47:19;;;;;;;;;;;;;;;17.61;65.14;100126.72;5066300;28;980;-59
2022/06/09 05:49:47;;;;;;;;;;;;;;;17.33;66.19;100126.53;5069465;28;1068;-58
2022/06/09 05:52:13;;;;;;;;;;;;;;;17.50;65.52;100125.22;5058510;28;1036;-61
2022/06/09 05:54:38;;;;;;;;;;;;;;;18.07;64.05;100133.50;5066991;28;1913;-60
2022/06/09 05:57:04;;;;;;;;;;;;;;;17.98;63.91;100121.53;5071728;28;964;-59
2022/06/09 05:59:29;;;;;;;;;;;;;;;17.80;64.77;100123.97;5066722;28;1004;-60
2022/06/09 06:01:54;;;;;;;;;;;;;;;17.78;64.84;100132.53;5055770;28;1147;-60
2022/06/09 06:04:20;;;;;;;;;;;;;;;18.19;63.73;100120.09;5066271;28;1067;-59
2022/06/09 06:06:45;;;;;;;;;;;;;;;18.26;63.74;100128.78;5066997;28;1068;-58
2022/06/09 06:09:12;;;;;;;;;;;;;;;18.03;64.30;100114.00;5072371;28;1072;-59
2022/06/09 06:11:37;;;;;;;;;;;;;;;18.11;64.14;100126.28;5069986;28;1032;-58
2022/06/09 06:14:03;;;;;;;;;;;;;;;18.07;64.67;100126.03;5070841;28;1930;-58
2022/06/09 06:16:29;;;;;;;;;;;;;;;18.17;64.33;100125.06;5070402;28;1325;-58
2022/06/09 06:18:54;;;;;;;;;;;;;;;18.44;63.62;100118.84;5065277;28;1210;-58
2022/06/09 06:21:20;;;;;;;;;;;;;;;18.29;63.88;100121.84;5070630;28;1008;-58
2022/06/09 06:23:46;;;;;;;;;;;;;;;18.15;64.88;100118.25;5077285;28;1048;-57
2022/06/09 06:26:11;;;;;;;;;;;;;;;17.77;64.56;100117.13;5069856;28;1107;-61
2022/06/09 06:28:37;;;;;;;;;;;;;;;17.66;63.04;100114.84;5066355;28;1127;-59
2022/06/09 06:31:02;;;;;;;;;;;;;;;17.78;60.53;100113.28;5069534;28;981;-59
2022/06/09 06:33:28;;;;;;;;;;;;;;;17.84;57.59;100111.25;5063982;28;1985;-58
2022/06/09 06:35:53;;;;;;;;;;;;;;;17.55;55.43;100114.16;5070691;28;1047;-57
2022/06/09 06:38:18;;;;;;;;;;;;;;;17.38;53.60;100103.66;5065869;28;1202;-58
2022/06/09 06:40:44;;;;;;;;;;;;;;;17.42;51.40;100102.78;5064400;28;1266;-58
2022/06/09 06:43:09;;;;;;;;;;;;;;;17.43;50.38;100112.66;5061559;28;1238;-57
2022/06/09 06:45:35;;;;;;;;;;;;;;;17.36;49.35;100111.38;5061660;28;1321;-57
2022/06/09 06:48:00;;;;;;;;;;;;;;;17.28;48.63;100113.66;5063089;28;936;-56
2022/06/09 06:50:26;;;;;;;;;;;;;;;17.41;48.77;100108.56;5073456;28;1275;-56
2022/06/09 06:52:51;;;;;;;;;;;;;;;17.43;49.59;100118.16;5065812;28;969;-56
2022/06/09 06:55:17;;;;;;;;;;;;;;;17.62;50.13;100109.09;5065111;28;1905;-57
2022/06/09 06:57:42;;;;;;;;;;;;;;;17.58;51.20;100110.81;5070924;28;984;-56
2022/06/09 07:00:09;;;;;;;;;;;;;;;17.62;51.66;100109.91;5071140;28;1351;-56
2022/06/09 07:02:34;;;;;;;;;;;;;;;17.79;52.08;100114.91;5069381;28;1250;-57
2022/06/09 07:04:59;;;;;;;;;;;;;;;17.52;53.29;100120.25;5065165;28;1183;-58
2022/06/09 07:07:25;;;;;;;;;;;;;;;17.73;53.24;100115.28;5066443;28;1161;-57
2022/06/09 07:09:51;;;;;;;;;;;;;;;17.74;53.20;100117.72;5066946;28;1305;-56
2022/06/09 07:12:16;;;;;;;;;;;;;;;17.40;54.54;100113.25;5063861;28;1265;-57
2022/06/09 07:14:41;;;;;;;;;;;;;;;17.19;55.21;100111.88;5061751;28;1902;-57
2022/06/09 07:17:07;;;;;;;;;;;;;;;17.33;54.69;100111.97;5068361;28;1365;-56
2022/06/09 07:19:32;;;;;;;;;;;;;;;17.65;54.05;100115.94;5062153;28;960;-56
2022/06/09 07:21:58;;;;;;;;;;;;;;;17.60;55.47;100105.84;5073205;28;1138;-57
2022/06/09 07:24:24;;;;;;;;;;;;;;;17.84;56.26;100116.75;5069130;28;1039;-58
2022/06/09 07:26:49;;;;;;;;;;;;;;;18.18;57.05;100112.94;5062571;28;1080;-57
2022/06/09 07:29:16;;;;;;;;;;;;;;;17.95;58.92;100120.22;5071351;28;1008;-56
2022/06/09 07:31:41;;;;;;;;;;;;;;;17.81;60.23;100120.13;5066514;28;1257;-55
2022/06/09 07:34:07;;;;;;;;;;;;;;;17.91;60.75;100119.97;5065151;28;1892;-56
2022/06/09 07:36:32;;;;;;;;;;;;;;;18.36;59.70;100121.47;5066744;28;949;-55
2022/06/09 07:38:58;;;;;;;;;;;;;;;18.25;60.09;100110.63;5069628;28;1216;-55
2022/06/09 07:41:23;;;;;;;;;;;;;;;17.95;61.02;100117.47;5066444;28;1004;-56
2022/06/09 07:43:49;;;;;;;;;;;;;;;17.76;61.37;100110.00;5072202;28;1360;-58
2022/06/09 07:46:15;;;;;;;;;;;;;;;18.01;60.27;100105.25;5065526;28;1277;-57
2022/06/09 07:48:40;;;;;;;;;;;;;;;18.34;59.29;100099.75;5075921;28;1000;-56
2022/06/09 07:51:06;;;;;;;;;;;;;;;18.35;59.22;100095.06;5071934;28;921;-57
2022/06/09 07:53:31;;;;;;;;;;;;;;;18.21;59.60;100095.03;5064394;28;1968;-58
2022/06/09 07:55:57;;;;;;;;;;;;;;;18.20;59.75;100102.47;5070671;28;936;-58
2022/06/09 07:58:22;;;;;;;;;;;;;;;18.17;59.99;100108.56;5070113;28;1182;-57
2022/06/09 08:00:48;;;;;;;;;;;;;;;18.21;59.76;100106.84;5073759;28;863;-56
2022/06/09 08:03:17;;;;;;;;;;;;;;;18.37;59.33;100101.91;5073791;28;944;-56
2022/06/09 08:05:42;;;;;;;;;;;;;;;18.67;58.69;100104.41;5066796;28;1071;-57
2022/06/09 08:08:08;;;;;;;;;;;;;;;18.64;58.71;100100.31;5067275;28;1004;-56
2022/06/09 08:10:33;;;;;;;;;;;;;;;18.20;59.01;100104.38;5066518;28;1083;-60
2022/06/09 08:12:59;;;;;;;;;;;;;;;17.56;58.02;100105.59;5066068;28;953;-60
2022/06/09 08:15:25;;;;;;;;;;;;;;;17.27;55.58;100098.28;5064726;28;1974;-58
2022/06/09 08:17:54;;;;;;;;;;;;;;;17.39;52.17;100106.13;5059020;28;1166;-57
2022/06/09 08:20:20;;;;;;;;;;;;;;;17.45;50.08;100104.13;5053101;28;997;-56
2022/06/09 08:22:45;;;;;;;;;;;;;;;17.53;48.53;100106.22;5069422;28;1004;-57
2022/06/09 08:25:12;;;;;;;;;;;;;;;17.53;46.95;100102.63;5068519;28;1048;-55
2022/06/09 08:27:37;;;;;;;;;;;;;;;17.55;46.45;100108.66;5064970;28;1039;-58
2022/06/09 08:30:03;;;;;;;;;;;;;;;17.40;46.52;100107.75;5065346;28;1190;-57
2022/06/09 08:32:29;;;;;;;;;;;;;;;17.41;47.13;100109.38;5073430;28;1106;-56
2022/06/09 08:34:54;;;;;;;;;;;;;;;17.56;48.66;100111.09;5071846;28;1914;-58
2022/06/09 08:37:19;;;;;;;;;;;;;;;17.58;51.02;100108.88;5066858;28;1768;-56
2022/06/09 08:39:45;;;;;;;;;;;;;;;17.67;51.54;100108.19;5064812;28;1273;-58
2022/06/09 08:42:28;;;;;;;;;;;;;;;17.90;51.53;100117.50;5062215;28;1218;-57
2022/06/09 08:45:04;;;;;;;;;;;;;;;17.69;52.12;100112.28;5069673;28;1007;-56
2022/06/09 08:47:37;;;;;;;;;;;;;;;17.64;52.15;100108.81;5043936;28;1052;-58
2022/06/09 08:50:22;;;;;;;;;;;;;;;17.51;52.50;100110.38;5062804;28;1070;-57
2022/06/09 08:52:51;;;;;;;;;;;;;;;17.55;52.21;100109.47;5051870;28;1039;-57
2022/06/09 08:55:36;;;;;;;;;;;;;;;17.84;52.02;100110.41;5063316;28;1987;-57
2022/06/09 08:58:08;;;;;;;;;;;;;;;17.86;53.87;100106.25;5066739;28;960;-57
2022/06/09 09:00:36;;;;;;;;;;;;;;;17.87;56.07;100109.84;5067558;28;977;-56
2022/06/09 09:03:04;;;;;;;;;;;;;;;18.19;56.67;100102.75;5050301;28;1056;-56
2022/06/09 09:05:38;;;;;;;;;;;;;;;18.34;57.49;100094.25;5053513;28;1079;-56
2022/06/09 09:08:04;;;;;;;;;;;;;;;18.04;59.56;100096.38;5048761;28;1034;-57
2022/06/09 09:10:36;;;;;;;;;;;;;;;17.94;60.46;100085.56;5049304;28;1114;-57
2022/06/09 09:13:04;;;;;;;;;;;;;;;18.08;61.03;100091.91;5064800;28;937;-57
2022/06/09 09:15:40;;;;;;;;;;;;;;;18.43;60.33;100078.66;5062174;28;1910;-58
2022/06/09 09:18:05;;;;;;;;;;;;;;;18.71;60.06;100084.22;5049639;28;1100;-57
2022/06/09 09:20:32;;;;;;;;;;;;;;;18.92;60.47;100072.81;5071370;28;870;-56
2022/06/09 09:23:07;;;;;;;;;;;;;;;18.80;58.71;100085.16;5065797;28;1177;-56
2022/06/09 09:25:53;;;;;;;;;;;;;;;18.65;55.03;100088.19;5065514;28;996;-57
2022/06/09 09:28:20;;;;;;;;;;;;;;;18.29;51.99;100083.34;5047643;28;1309;-56
2022/06/09 09:30:55;;;;;;;;;;;;;;;17.73;50.76;100085.84;5054889;28;1095;-57
2022/06/09 09:33:20;;;;;;;;;;;;;;;17.60;48.12;100075.59;5070266;28;949;-56
2022/06/09 09:35:47;;;;;;;;;;;;;;;17.40;46.92;100080.28;5053279;28;1917;-56
2022/06/09 09:38:14;;;;;;;;;;;;;;;17.40;45.51;100083.03;5049635;28;953;-56
2022/06/09 09:40:43;;;;;;;;;;;;;;;17.33;44.62;100082.56;5051735;28;1055;-56
2022/06/09 09:43:10;;;;;;;;;;;;;;;17.16;44.12;100065.75;5072607;28;1071;-56
2022/06/09 09:45:36;;;;;;;;;;;;;;;17.27;43.30;100075.50;5068008;28;1133;-56
2022/06/09 09:48:06;;;;;;;;;;;;;;;17.07;44.63;100076.59;5056224;28;1083;-56
2022/06/09 09:50:37;;;;;;;;;;;;;;;17.17;45.56;100081.94;5072838;28;1448;-56
2022/06/09 09:53:04;;;;;;;;;;;;;;;17.17;46.80;100075.66;5076643;28;1099;-55
2022/06/09 09:55:35;;;;;;;;;;;;;;;17.34;47.62;100072.41;5076217;28;1914;-56
2022/06/09 09:58:34;;;;;;;;;;;;;;;17.39;48.27;100073.16;5052609;28;1071;-56
2022/06/09 10:01:04;;;;;;;;;;;;;;;17.35;48.81;100077.59;5016839;28;1119;-56
2022/06/09 10:08:35;;;;;;;;;;;;;;;17.60;51.48;100059.13;5071584;28;984;-56
2022/06/09 10:09:27;;;;;;;;;;;;;;;18.03;54.24;100053.47;5062012;28;1019;-56
2022/06/09 10:11:53;;;;;;;;;;;;;;;18.13;56.48;100056.09;5051324;28;891;-56
2022/06/09 10:14:38;;;;;;;;;;;;;;;18.34;58.11;100058.47;5043076;28;1902;-56
2022/06/09 10:17:05;;;;;;;;;;;;;;;18.38;59.87;100064.97;5058042;28;1008;-58
2022/06/09 10:19:31;;;;;;;;;;;;;;;18.49;60.87;100049.09;5069699;28;1028;-55
2022/06/09 10:21:58;;;;;;;;;;;;;;;18.51;61.60;100041.38;5068683;28;1091;-57
2022/06/09 10:24:42;;;;;;;;;;;;;;;18.53;60.21;100049.31;5067644;28;1036;-58
2022/06/09 10:27:08;;;;;;;;;;;;;;;18.35;56.57;100038.06;5047926;28;1342;-57
2022/06/09 10:29:37;;;;;;;;;;;;;;;17.91;54.02;100040.22;5057152;28;1068;-58
2022/06/09 10:32:04;;;;;;;;;;;;;;;17.82;50.54;100041.16;5050581;28;1210;-58
2022/06/09 10:34:33;;;;;;;;;;;;;;;17.88;47.75;100038.03;5064284;28;1897;-58
2022/06/09 10:37:03;;;;;;;;;;;;;;;17.89;45.87;100047.09;5065660;28;948;-58
2022/06/09 10:39:40;;;;;;;;;;;;;;;17.56;44.99;100038.84;5045981;28;1175;-57
2022/06/09 10:42:18;;;;;;;;;;;;;;;17.66;43.52;100038.66;5050256;28;1501;-61
2022/06/09 10:44:45;;;;;;;;;;;;;;;17.33;43.52;100040.53;5052089;28;920;-56
2022/06/09 10:55:49;;;;;;;;;;;;;;;17.58;44.20;100031.09;5055035;28;1909;-56
2022/06/09 10:58:24;;;;;;;;;;;;;;;17.72;45.90;100033.91;5053040;28;1258;-57
2022/06/09 11:00:50;;;;;;;;;;;;;;;17.84;47.62;100022.41;5054618;28;1055;-58
2022/06/09 11:03:17;;;;;;;;;;;;;;;17.88;49.71;100034.47;5064850;28;1029;-58
2022/06/09 11:06:01;;;;;;;;;;;;;;;18.09;50.45;100023.94;5074813;28;992;-58
2022/06/09 11:08:28;;;;;;;;;;;;;;;18.18;51.50;100024.09;5063491;28;1299;-58
2022/06/09 11:11:02;;;;;;;;;;;;;;;17.99;52.78;100024.13;5050023;28;1333;-58
2022/06/09 11:13:34;;;;;;;;;;;;;;;17.83;53.80;100018.06;5065746;28;1341;-57
2022/06/09 11:15:59;;;;;;;;;;;;;;;17.83;54.43;100029.06;5048672;28;1077;-56
2022/06/09 11:18:25;;;;;;;;;;;;;;;17.93;54.39;100009.66;5066250;28;1076;-57
2022/06/09 11:20:53;;;;;;;;;;;;;;;18.11;54.15;100025.28;5067294;28;1080;-56
2022/06/09 11:23:37;;;;;;;;;;;;;;;18.28;54.06;100018.38;5069906;28;1148;-56
2022/06/09 11:26:07;;;;;;;;;;;;;;;18.43;53.81;100009.84;5069770;28;937;-57
2022/06/09 11:28:35;;;;;;;;;;;;;;;18.61;53.83;100018.34;5044539;28;1252;-57
2022/06/09 11:31:00;;;;;;;;;;;;;;;18.63;53.74;100008.66;5063916;28;948;-57
2022/06/09 11:33:32;;;;;;;;;;;;;;;18.25;54.22;100011.56;5069631;28;1071;-56
2022/06/09 11:35:59;;;;;;;;;;;;;;;18.07;54.71;100005.00;5066528;28;1017;-55
2022/06/09 11:38:38;;;;;;;;;;;;;;;17.63;55.62;100011.78;5048173;28;961;-57
2022/06/09 11:41:12;;;;;;;;;;;;;;;17.42;55.96;100008.53;5052905;28;917;-57
2022/06/09 11:43:56;;;;;;;;;;;;;;;17.61;55.36;100012.06;5047226;28;1195;-56
2022/06/09 11:46:23;;;;;;;;;;;;;;;18.04;54.10;100011.09;5072271;28;1004;-58
2022/06/09 11:48:50;;;;;;;;;;;;;;;18.44;52.84;100008.72;5066604;28;1032;-56
2022/06/09 11:51:16;;;;;;;;;;;;;;;18.63;52.23;100007.81;5052485;28;1063;-57
2022/06/09 11:53:45;;;;;;;;;;;;;;;18.49;52.54;100004.25;5069500;28;1972;-57
2022/06/09 11:56:45;;;;;;;;;;;;;;;17.94;54.07;100000.28;5069386;28;1060;-56
2022/06/09 11:59:10;;;;;;;;;;;;;;;17.84;54.30;100000.41;5062521;28;1202;-57
2022/06/09 12:01:39;;;;;;;;;;;;;;;17.84;54.24;99992.16;5075243;28;811;-57
2022/06/09 12:04:23;;;;;;;;;;;;;;;17.97;53.98;100005.19;5071110;28;1051;-57
2022/06/09 12:06:51;;;;;;;;;;;;;;;18.02;53.72;100007.84;5064334;28;1356;-55
2022/06/09 12:09:35;;;;;;;;;;;;;;;18.08;53.50;100000.31;5063666;28;1010;-56
2022/06/09 12:12:03;;;;;;;;;;;;;;;18.33;52.67;100001.78;5064016;28;1368;-57
2022/06/09 12:14:35;;;;;;;;;;;;;;;18.37;52.63;99986.31;5064265;28;1895;-56
2022/06/09 12:17:05;;;;;;;;;;;;;;;18.20;53.10;99997.06;5040708;28;984;-57
2022/06/09 12:19:59;;;;;;;;;;;;;;;17.84;54.22;100000.41;5069360;28;1053;-57
2022/06/09 12:22:40;;;;;;;;;;;;;;;17.78;54.18;99997.78;5064649;28;1076;-57
2022/06/09 12:25:10;;;;;;;;;;;;;;;18.07;53.46;99995.94;5062278;28;934;-57
2022/06/09 12:27:38;;;;;;;;;;;;;;;18.02;53.40;99988.59;5069111;28;1000;-57
2022/06/09 12:30:12;;;;;;;;;;;;;;;18.13;53.23;99984.53;5061790;28;1143;-57
2022/06/09 12:32:41;;;;;;;;;;;;;;;18.34;52.70;99992.44;5044912;28;980;-57
2022/06/09 12:35:25;;;;;;;;;;;;;;;18.57;52.01;99981.50;5072953;28;1898;-56
2022/06/09 12:38:01;;;;;;;;;;;;;;;18.34;52.75;99986.91;5068382;28;1005;-57
2022/06/09 12:40:38;;;;;;;;;;;;;;;18.10;53.63;99989.81;5062532;28;1028;-56
2022/06/09 12:43:07;;;;;;;;;;;;;;;17.87;54.30;99983.34;5065052;28;1090;-57
2022/06/09 12:45:34;;;;;;;;;;;;;;;17.87;54.21;99983.34;5068225;28;890;-56
2022/06/09 12:48:00;;;;;;;;;;;;;;;17.84;54.31;99983.91;5079261;28;1012;-56
2022/06/09 12:50:37;;;;;;;;;;;;;;;17.95;54.02;99991.75;5071352;28;1000;-58
2022/06/09 12:53:06;;;;;;;;;;;;;;;17.85;54.03;99996.56;5072109;28;1047;-57
2022/06/09 12:55:33;;;;;;;;;;;;;;;17.93;53.87;99993.97;5059858;28;1913;-57
2022/06/09 12:58:15;;;;;;;;;;;;;;;18.12;53.24;100002.16;5066457;28;996;-58
2022/06/09 13:00:42;;;;;;;;;;;;;;;18.39;52.82;99999.75;5051958;28;1223;-56
2022/06/09 13:03:14;;;;;;;;;;;;;;;18.54;52.51;99996.72;5047827;28;1522;-59
2022/06/09 13:05:40;;;;;;;;;;;;;;;18.20;53.54;100008.09;5074558;28;1004;-58
2022/06/09 13:08:18;;;;;;;;;;;;;;;17.83;54.24;100004.31;5075347;28;1234;-58
2022/06/09 13:10:44;;;;;;;;;;;;;;;17.92;54.23;100003.34;5072669;28;932;-60
2022/06/09 13:13:15;;;;;;;;;;;;;;;18.01;53.76;100000.72;5070577;28;1008;-59